Flight Track Log - Related Links

Times and Time Zones

All times are in EDT time to prevent confusion due to time zone crossing. See the N498QS flight status page for this flight to view local times or setup timezone preferences in your user account.

Time Position Orientation Groundspeed Altitude Reporting Facility
EDT Latitude Longitude Course Direction KTS MPH feet Rate Location/Type
Mon 07:04:45 PM 35.7950 -78.8339 199° South 228 262 4,900  Level Washington Center
Mon 07:07:11 PM 35.6211 -78.7861 167° South 275 316 12,000 3,072 Climbing Washington Center
Mon 07:08:12 PM 35.5186 -78.7181 152° Southeast 354 407 15,500 2,924 Climbing Washington Center
Mon 07:09:10 PM 35.4169 -78.6939 169° South 373 429 17,800 2,390 Climbing Washington Center
Mon 07:10:10 PM 35.3025 -78.6792 174° South 397 457 20,200 2,250 Climbing Washington Center
Mon 07:11:10 PM 35.1861 -78.6619 173° South 414 476 22,300 2,231 Climbing Washington Center
Mon 07:12:11 PM 35.0656 -78.6422 172° South 429 494 24,700 2,164 Climbing Washington Center
Mon 07:13:12 PM 34.9442 -78.6553 185° South 435 501 26,700 2,212 Climbing Washington Center
Mon 07:15:29 PM 34.7067 -78.7989 206° Southwest 438 504 32,000 1,622 Climbing Jacksonville Center
Mon 07:16:28 PM 34.6047 -78.8694 210° Southwest 427 491 32,000  Level Jacksonville Center
Mon 07:17:28 PM 34.4906 -78.9553 212° Southwest 427 491 32,000  Level Jacksonville Center
Mon 07:18:29 PM 34.3864 -79.0306 211° Southwest 439 505 32,000  Level Jacksonville Center
Mon 07:19:28 PM 34.2822 -79.1031 210° Southwest 439 505 32,000  Level Jacksonville Center
Mon 07:20:29 PM 34.1781 -79.1728 209° Southwest 439 505 32,000  Level Jacksonville Center
Mon 07:21:28 PM 34.0717 -79.2450 209° Southwest 439 505 32,000  Level Jacksonville Center
Mon 07:22:29 PM 33.9736 -79.3217 213° Southwest 434 499 32,000  Level Jacksonville Center
Mon 07:23:28 PM 33.8756 -79.3981 213° Southwest 434 499 32,000  Level Jacksonville Center
Mon 07:24:28 PM 33.7839 -79.4717 214° Southwest 418 481 32,000  Level Jacksonville Center
Mon 07:25:29 PM 33.6858 -79.5531 215° Southwest 418 481 32,000  Level Jacksonville Center
Mon 07:26:28 PM 33.5878 -79.6339 214° Southwest 423 487 32,000  Level Jacksonville Center
Mon 07:27:29 PM 33.4894 -79.7122 214° Southwest 430 495 32,000  Level Jacksonville Center
Mon 07:28:28 PM 33.3872 -79.7956 214° Southwest 436 502 32,000  Level Jacksonville Center
Mon 07:29:29 PM 33.2911 -79.8733 214° Southwest 436 502 32,000  Level Jacksonville Center
Mon 07:30:28 PM 33.1886 -79.9539 213° Southwest 436 502 32,000  Level Jacksonville Center
Mon 07:31:28 PM 33.1086 -80.0158 213° Southwest 436 502 32,000  Level Jacksonville Center
Mon 07:32:28 PM 33.0000 -80.1086 216° Southwest 436 502 32,000  Level Jacksonville Center
Mon 07:33:28 PM 32.8892 -80.1936 213° Southwest 450 518 32,000 -50 Level Jacksonville Center
Mon 07:34:29 PM 32.7908 -80.2731 214° Southwest 450 518 31,900 -600 Descending Jacksonville Center
Mon 07:35:28 PM 32.6900 -80.3550 214° Southwest 450 518 30,800 -1,210 Descending Jacksonville Center
Mon 07:36:28 PM 32.5894 -80.4344 214° Southwest 444 511 29,500 -1,388 Descending Jacksonville Center
Mon 07:37:29 PM 32.4928 -80.5108 214° Southwest 434 499 28,000 -1,550 Descending Jacksonville Center
Mon 07:38:28 PM 32.3961 -80.5872 214° Southwest 429 494 26,400 -1,815 Descending Jacksonville Center
Mon 07:39:28 PM 32.2994 -80.6633 214° Southwest 429 494 24,400 -2,000 Descending Jacksonville Center
Mon 07:40:28 PM 32.2067 -80.7344 213° Southwest 419 482 22,400 -2,876 Descending Jacksonville Center
Mon 07:41:29 PM 32.1056 -80.8153 214° Southwest 400 460 18,600 -3,124 Descending Jacksonville Center
Mon 07:42:29 PM 32.0169 -80.8833 213° Southwest 393 452 16,100 -2,370 Descending Jacksonville Center
Mon 07:43:28 PM 31.9386 -80.9439 213° Southwest 387 445 13,900 -2,400 Descending Jacksonville Center
Mon 07:44:29 PM 31.8478 -81.0142 213° Southwest 367 422 11,300 -2,083 Descending Jacksonville Center
Mon 07:45:29 PM 31.7797 -81.0669 213° Southwest 343 395 9,700 -1,600 Descending Jacksonville Center
Mon 07:46:29 PM 31.7136 -81.1169 213° Southwest 314 361 8,100 -1,350 Descending Jacksonville Center
Mon 07:47:29 PM 31.6414 -81.1747 214° Southwest 293 337 7,000 -550 Descending Jacksonville Center
Mon 07:48:29 PM 31.5753 -81.2247 213° Southwest 281 323 7,000  Level Jacksonville Center
Mon 07:49:28 PM 31.5153 -81.2719 214° Southwest 274 315 7,000 -550 Level Jacksonville Center
Mon 07:50:29 PM 31.4656 -81.3094 213° Southwest 246 283 5,900 -1,438 Descending Jacksonville Center
Mon 07:51:29 PM 31.4139 -81.3517 215° Southwest 240 276 4,100 -1,462 Descending Jacksonville Center
Mon 07:52:28 PM 31.3558 -81.3939 212° Southwest 229 264 3,000 -1,119 Descending Jacksonville Center

Login

Don't have an account? Register now (free) for customized features, flight alerts, and more!